Aviation Digital Data Service (ADDS)

Output produced by METARs form (1619 UTC 20 November 2018)
found at http://www.aviationweather.gov/metar/data/
 
METAR text: KAPC 201554Z 06005KT 3SM HZ FU CLR 03/00 A3003 RMK AO2 SLP160 T00330000
Conditions at: KAPC (NAPA , CA, US) observed 1554 UTC 20 November 2018
Temperature: 3.3°C (38°F)
Dewpoint: 0.0°C (32°F) [RH = 79%]
Pressure (altimeter): 30.03 inches Hg (1017.0 mb)
[Sea-level pressure: 1016.0 mb]
Winds: from the ENE (60 degrees) at 6 MPH (5 knots; 2.6 m/s)
Visibility: 3 miles ( 5 km)
Ceiling: at least 12,000 feet AGL
Clouds: sky clear below 12,000 feet AGL
Weather: HZ FU  (haze, smoke)

METAR text: KAPC 201454Z 00000KT 4SM HZ FU CLR 00/M03 A3001 RMK AO2 SLP155 T00001028 53008
Conditions at: KAPC (NAPA , CA, US) observed 1454 UTC 20 November 2018
Temperature: 0.0°C (32°F)
Dewpoint: -2.8°C (27°F) [RH = 81%]
Pressure (altimeter): 30.01 inches Hg (1016.3 mb)
[Sea-level pressure: 1015.5 mb]
Winds: calm
Visibility: 4 miles ( 6 km)
Ceiling: at least 12,000 feet AGL
Clouds: sky clear below 12,000 feet AGL
Weather: HZ FU  (haze, smoke)

METAR text: KAPC 201354Z AUTO 00000KT 4SM HZ FU OVC017 01/M02 A3000 RMK AO2 SLP150 T00111022
Conditions at: KAPC (NAPA , CA, US) observed 1354 UTC 20 November 2018
Temperature: 1.1°C (34°F)
Dewpoint: -2.2°C (28°F) [RH = 79%]
Pressure (altimeter): 30.00 inches Hg (1016.0 mb)
[Sea-level pressure: 1015.0 mb]
Winds: calm
Visibility: 4 miles ( 6 km)
Ceiling: 1700 feet AGL
Clouds: overcast cloud deck at 1700 feet AGL
Weather: HZ FU  (haze, smoke)

METAR text: KAPC 201254Z AUTO 01005KT 4SM HZ FU OVC016 01/M02 A3000 RMK AO2 SLP151 T00111017
Conditions at: KAPC (NAPA , CA, US) observed 1254 UTC 20 November 2018
Temperature: 1.1°C (34°F)
Dewpoint: -1.7°C (29°F) [RH = 82%]
Pressure (altimeter): 30.00 inches Hg (1016.0 mb)
[Sea-level pressure: 1015.1 mb]
Winds: from the N (10 degrees) at 6 MPH (5 knots; 2.6 m/s)
Visibility: 4 miles ( 6 km)
Ceiling: 1600 feet AGL
Clouds: overcast cloud deck at 1600 feet AGL
Weather: HZ FU  (haze, smoke)

METAR text: KAPC 201154Z AUTO 35005KT 4SM HZ FU OVC016 02/M01 A2999 RMK AO2 SLP147 T00221011 10072 20006 56007
Conditions at: KAPC (NAPA , CA, US) observed 1154 UTC 20 November 2018
Temperature: 2.2°C (36°F)
Dewpoint: -1.1°C (30°F) [RH = 79%]
Pressure (altimeter): 29.99 inches Hg (1015.7 mb)
[Sea-level pressure: 1014.7 mb]
Winds: from the N (350 degrees) at 6 MPH (5 knots; 2.6 m/s)
Visibility: 4 miles ( 6 km)
Ceiling: 1600 feet AGL
Clouds: overcast cloud deck at 1600 feet AGL
Weather: HZ FU  (haze, smoke)

METAR text: KAPC 201054Z AUTO 4SM HZ FU OVC016 01/M02 A3000 RMK AO2 SLP149 T00111017
Conditions at: KAPC (NAPA , CA, US) observed 1054 UTC 20 November 2018
Temperature: 1.1°C (34°F)
Dewpoint: -1.7°C (29°F) [RH = 82%]
Pressure (altimeter): 30.00 inches Hg (1016.0 mb)
[Sea-level pressure: 1014.9 mb]
Winds: missing
Visibility: 4 miles ( 6 km)
Ceiling: 1600 feet AGL
Clouds: overcast cloud deck at 1600 feet AGL
Weather: HZ FU  (haze, smoke)

METAR text: KAPC 200954Z AUTO 00000KT 4SM HZ FU OVC016 03/M02 A3000 RMK AO2 SLP148 T00281017
Conditions at: KAPC (NAPA , CA, US) observed 0954 UTC 20 November 2018
Temperature: 2.8°C (37°F)
Dewpoint: -1.7°C (29°F) [RH = 72%]
Pressure (altimeter): 30.00 inches Hg (1016.0 mb)
[Sea-level pressure: 1014.8 mb]
Winds: calm
Visibility: 4 miles ( 6 km)
Ceiling: 1600 feet AGL
Clouds: overcast cloud deck at 1600 feet AGL
Weather: HZ FU  (haze, smoke)

METAR text: KAPC 200942Z AUTO 00000KT 4SM HZ FU OVC015 01/M03 A3000 RMK AO2 T00111028
Conditions at: KAPC (NAPA , CA, US) observed 0942 UTC 20 November 2018
Temperature: 1.1°C (34°F)
Dewpoint: -2.8°C (27°F) [RH = 75%]
Pressure (altimeter): 30.00 inches Hg (1016.0 mb)
Winds: calm
Visibility: 4 miles ( 6 km)
Ceiling: 1500 feet AGL
Clouds: overcast cloud deck at 1500 feet AGL
Weather: HZ FU  (haze, smoke)

METAR text: KAPC 200921Z AUTO 00000KT 4SM HZ FU OVC014 03/M02 A3001 RMK AO2 T00331017
Conditions at: KAPC (NAPA , CA, US) observed 0921 UTC 20 November 2018
Temperature: 3.3°C (38°F)
Dewpoint: -1.7°C (29°F) [RH = 70%]
Pressure (altimeter): 30.01 inches Hg (1016.3 mb)
Winds: calm
Visibility: 4 miles ( 6 km)
Ceiling: 1400 feet AGL
Clouds: overcast cloud deck at 1400 feet AGL
Weather: HZ FU  (haze, smoke)

METAR text: KAPC 200854Z AUTO 4SM HZ FU OVC022 04/M02 A3001 RMK AO2 SLP154 T00391017 58001
Conditions at: KAPC (NAPA , CA, US) observed 0854 UTC 20 November 2018
Temperature: 3.9°C (39°F)
Dewpoint: -1.7°C (29°F) [RH = 67%]
Pressure (altimeter): 30.01 inches Hg (1016.3 mb)
[Sea-level pressure: 1015.4 mb]
Winds: missing
Visibility: 4 miles ( 6 km)
Ceiling: 2200 feet AGL
Clouds: overcast cloud deck at 2200 feet AGL
Weather: HZ FU  (haze, smoke)